PAEI METAR and TAF weather

Enter ICAO airport designator
Station Type Date Time Source
PAEI METAR 2022/01/25 04:09 UTC NOAA

PAEI 250409Z VRB06KT 10SM BKN100 M01/M04 A2936 RMK AO2A SLP950 $


Station Type Date Time Source
PAEI Decoded METAR 2022/01/25 04:09 UTC NOAA

Fairbanks, Eielson Air Force Base, AK, United States (PAEI) 64-39N 147-06W 167M
Jan 24, 2022 - 11:09 PM EST / 2022.01.25 0409 UTC
Wind: Variable at 7 MPH (6 KT):0
Visibility: 10 mile(s):0
Sky conditions: mostly cloudy
Temperature: 30 F (-1 C)
Windchill: 23 F (-5 C):1
Dew Point: 24 F (-4 C)
Relative Humidity: 80%
Pressure (altimeter): 29.36 in. Hg (994 hPa)
ob: PAEI 250409Z VRB06KT 10SM BKN100 M01/M04 A2936 RMK AO2A SLP950
cycle: 4

Station Type Date Time Source
PAEI TAF 2022/01/24 22:18 UTC NOAA

TAF TAF PAEI 242200Z 2422/2604 13012G20KT 9999 SCT080 SCT120 BKN160 530105 QNH2928INS
TEMPO 2422/2424 13020G25KT 530006
BECMG 2505/2506 VRB06KT 9999 SCT060 BKN100 520505 QNH2934INS
BECMG 2508/2509 22010G15KT 9999 VCSH FEW025 BKN060 610606 530105 QNH2941INS
BECMG 2510/2511 24015G25KT 8000 -SHSN FEW006 BKN012 BKN020 610209 530057 QNH2958INS
BECMG 2518/2519 24010G28KT 9999 NSW FEW006 SCT015 BKN025 610259 530057 QNH2970INS TX06/2422Z TNM10/2522Z

Example: see airport list